sensor_id;sensor_type;location;lat;lon;timestamp;temperature;humidity
65707;SHT31;52423;43.512;5.220;2022-12-24T00:01:21;11.22;93.54
65707;SHT31;52423;43.512;5.220;2022-12-24T00:03:47;11.16;93.03
65707;SHT31;52423;43.512;5.220;2022-12-24T00:06:17;11.23;93.46
65707;SHT31;52423;43.512;5.220;2022-12-24T00:08:42;11.26;93.96
65707;SHT31;52423;43.512;5.220;2022-12-24T00:11:08;11.21;93.61
65707;SHT31;52423;43.512;5.220;2022-12-24T00:13:33;11.12;93.50
65707;SHT31;52423;43.512;5.220;2022-12-24T00:15:59;10.98;93.53
65707;SHT31;52423;43.512;5.220;2022-12-24T00:18:25;11.02;93.96
65707;SHT31;52423;43.512;5.220;2022-12-24T00:20:51;11.00;93.69
65707;SHT31;52423;43.512;5.220;2022-12-24T00:23:16;11.01;94.15
65707;SHT31;52423;43.512;5.220;2022-12-24T00:25:43;11.25;94.63
65707;SHT31;52423;43.512;5.220;2022-12-24T00:28:08;11.25;93.49
65707;SHT31;52423;43.512;5.220;2022-12-24T00:30:36;11.04;93.36
65707;SHT31;52423;43.512;5.220;2022-12-24T00:33:01;10.95;93.96
65707;SHT31;52423;43.512;5.220;2022-12-24T00:35:27;10.87;93.80
65707;SHT31;52423;43.512;5.220;2022-12-24T00:37:52;10.78;93.80
65707;SHT31;52423;43.512;5.220;2022-12-24T00:40:17;10.74;93.94
65707;SHT31;52423;43.512;5.220;2022-12-24T00:42:43;10.70;94.33
65707;SHT31;52423;43.512;5.220;2022-12-24T00:45:09;10.70;94.70
65707;SHT31;52423;43.512;5.220;2022-12-24T00:47:35;10.90;95.39
65707;SHT31;52423;43.512;5.220;2022-12-24T00:50:00;10.91;94.47
65707;SHT31;52423;43.512;5.220;2022-12-24T00:52:26;10.92;94.18
65707;SHT31;52423;43.512;5.220;2022-12-24T00:54:52;10.78;94.00
65707;SHT31;52423;43.512;5.220;2022-12-24T00:57:17;10.73;94.18
65707;SHT31;52423;43.512;5.220;2022-12-24T00:59:43;10.60;94.04
65707;SHT31;52423;43.512;5.220;2022-12-24T01:02:08;10.82;95.37
65707;SHT31;52423;43.512;5.220;2022-12-24T01:04:34;10.70;94.14
65707;SHT31;52423;43.512;5.220;2022-12-24T01:07:18;10.77;94.58
65707;SHT31;52423;43.512;5.220;2022-12-24T01:09:43;10.80;93.43
65707;SHT31;52423;43.512;5.220;2022-12-24T01:12:09;10.84;93.57
65707;SHT31;52423;43.512;5.220;2022-12-24T01:14:35;10.82;93.33
65707;SHT31;52423;43.512;5.220;2022-12-24T01:17:01;10.73;94.00
65707;SHT31;52423;43.512;5.220;2022-12-24T01:19:27;10.81;93.26
65707;SHT31;52423;43.512;5.220;2022-12-24T01:21:52;10.88;93.04
65707;SHT31;52423;43.512;5.220;2022-12-24T01:24:18;10.87;93.15
65707;SHT31;52423;43.512;5.220;2022-12-24T01:26:43;10.74;93.41
65707;SHT31;52423;43.512;5.220;2022-12-24T01:29:08;10.75;93.75
65707;SHT31;52423;43.512;5.220;2022-12-24T01:31:34;10.68;93.57
65707;SHT31;52423;43.512;5.220;2022-12-24T01:33:59;10.81;94.63
65707;SHT31;52423;43.512;5.220;2022-12-24T01:36:25;10.97;94.74
65707;SHT31;52423;43.512;5.220;2022-12-24T01:38:50;10.94;94.12
65707;SHT31;52423;43.512;5.220;2022-12-24T01:41:17;10.75;93.77
65707;SHT31;52423;43.512;5.220;2022-12-24T01:44:27;10.88;94.50
65707;SHT31;52423;43.512;5.220;2022-12-24T01:47:24;10.74;93.37
65707;SHT31;52423;43.512;5.220;2022-12-24T01:50:01;10.82;94.32
65707;SHT31;52423;43.512;5.220;2022-12-24T01:52:32;10.65;93.60
65707;SHT31;52423;43.512;5.220;2022-12-24T01:55:03;10.71;94.12
65707;SHT31;52423;43.512;5.220;2022-12-24T01:57:34;10.68;94.04
65707;SHT31;52423;43.512;5.220;2022-12-24T02:00:06;10.57;93.81
65707;SHT31;52423;43.512;5.220;2022-12-24T02:02:33;10.49;94.19
65707;SHT31;52423;43.512;5.220;2022-12-24T02:05:07;10.51;94.79
65707;SHT31;52423;43.512;5.220;2022-12-24T02:07:34;10.53;94.40
65707;SHT31;52423;43.512;5.220;2022-12-24T02:10:00;10.43;94.38
65707;SHT31;52423;43.512;5.220;2022-12-24T02:12:28;10.50;94.76
65707;SHT31;52423;43.512;5.220;2022-12-24T02:14:55;10.57;94.71
65707;SHT31;52423;43.512;5.220;2022-12-24T02:30:57;10.70;94.81
65707;SHT31;52423;43.512;5.220;2022-12-24T02:33:33;10.54;93.99
65707;SHT31;52423;43.512;5.220;2022-12-24T02:36:11;10.50;93.63
65707;SHT31;52423;43.512;5.220;2022-12-24T02:38:45;10.49;94.17
65707;SHT31;52423;43.512;5.220;2022-12-24T02:41:17;10.37;94.17
65707;SHT31;52423;43.512;5.220;2022-12-24T02:43:44;10.50;94.46
65707;SHT31;52423;43.512;5.220;2022-12-24T02:46:15;10.44;94.48
65707;SHT31;52423;43.512;5.220;2022-12-24T02:48:43;10.51;93.92
65707;SHT31;52423;43.512;5.220;2022-12-24T02:51:10;10.47;93.95
65707;SHT31;52423;43.512;5.220;2022-12-24T02:53:37;10.49;94.59
65707;SHT31;52423;43.512;5.220;2022-12-24T02:56:32;10.53;94.80
65707;SHT31;52423;43.512;5.220;2022-12-24T03:01:53;10.46;94.78
65707;SHT31;52423;43.512;5.220;2022-12-24T03:04:32;10.36;94.44
65707;SHT31;52423;43.512;5.220;2022-12-24T03:07:16;10.23;94.26
65707;SHT31;52423;43.512;5.220;2022-12-24T03:09:50;10.23;94.54
65707;SHT31;52423;43.512;5.220;2022-12-24T03:12:24;10.34;94.36
65707;SHT31;52423;43.512;5.220;2022-12-24T03:14:51;10.43;95.03
65707;SHT31;52423;43.512;5.220;2022-12-24T03:17:17;10.44;94.84
65707;SHT31;52423;43.512;5.220;2022-12-24T03:19:43;10.49;93.67
65707;SHT31;52423;43.512;5.220;2022-12-24T03:22:09;10.47;93.59
65707;SHT31;52423;43.512;5.220;2022-12-24T03:24:36;10.40;94.07
65707;SHT31;52423;43.512;5.220;2022-12-24T03:27:05;10.30;93.86
65707;SHT31;52423;43.512;5.220;2022-12-24T03:29:31;10.30;94.18
65707;SHT31;52423;43.512;5.220;2022-12-24T03:32:02;10.22;94.18
65707;SHT31;52423;43.512;5.220;2022-12-24T03:34:28;10.10;94.08
65707;SHT31;52423;43.512;5.220;2022-12-24T03:36:54;10.16;94.59
65707;SHT31;52423;43.512;5.220;2022-12-24T03:39:19;10.29;94.50
65707;SHT31;52423;43.512;5.220;2022-12-24T03:41:45;10.37;94.02
65707;SHT31;52423;43.512;5.220;2022-12-24T03:44:10;10.39;94.26
65707;SHT31;52423;43.512;5.220;2022-12-24T03:46:36;10.37;95.08
65707;SHT31;52423;43.512;5.220;2022-12-24T03:49:01;10.24;93.75
65707;SHT31;52423;43.512;5.220;2022-12-24T03:51:26;10.19;93.89
65707;SHT31;52423;43.512;5.220;2022-12-24T03:53:56;10.28;94.84
65707;SHT31;52423;43.512;5.220;2022-12-24T03:56:22;10.40;95.50
65707;SHT31;52423;43.512;5.220;2022-12-24T03:58:48;10.50;95.68
65707;SHT31;52423;43.512;5.220;2022-12-24T04:01:14;10.50;94.39
65707;SHT31;52423;43.512;5.220;2022-12-24T04:03:39;10.33;93.46
65707;SHT31;52423;43.512;5.220;2022-12-24T04:06:11;10.17;93.67
65707;SHT31;52423;43.512;5.220;2022-12-24T04:08:37;10.30;95.41
65707;SHT31;52423;43.512;5.220;2022-12-24T04:11:04;10.24;95.15
65707;SHT31;52423;43.512;5.220;2022-12-24T04:13:29;10.33;94.59
65707;SHT31;52423;43.512;5.220;2022-12-24T04:15:57;10.34;94.28
65707;SHT31;52423;43.512;5.220;2022-12-24T04:18:23;10.26;94.37
65707;SHT31;52423;43.512;5.220;2022-12-24T04:20:48;10.30;95.46
65707;SHT31;52423;43.512;5.220;2022-12-24T04:23:14;10.37;94.60
65707;SHT31;52423;43.512;5.220;2022-12-24T04:25:39;10.42;94.90
65707;SHT31;52423;43.512;5.220;2022-12-24T04:28:04;10.40;94.73
65707;SHT31;52423;43.512;5.220;2022-12-24T04:30:30;10.36;94.45
65707;SHT31;52423;43.512;5.220;2022-12-24T04:32:55;10.34;94.76
65707;SHT31;52423;43.512;5.220;2022-12-24T04:35:20;10.37;94.13
65707;SHT31;52423;43.512;5.220;2022-12-24T04:37:46;10.40;94.78
65707;SHT31;52423;43.512;5.220;2022-12-24T04:40:11;10.39;94.01
65707;SHT31;52423;43.512;5.220;2022-12-24T04:42:37;10.39;93.70
65707;SHT31;52423;43.512;5.220;2022-12-24T04:45:02;10.30;93.78
65707;SHT31;52423;43.512;5.220;2022-12-24T04:47:28;10.26;94.31
65707;SHT31;52423;43.512;5.220;2022-12-24T04:49:53;10.24;94.19
65707;SHT31;52423;43.512;5.220;2022-12-24T04:52:19;10.29;94.91
65707;SHT31;52423;43.512;5.220;2022-12-24T04:54:44;10.14;94.36
65707;SHT31;52423;43.512;5.220;2022-12-24T04:57:09;10.22;94.71
65707;SHT31;52423;43.512;5.220;2022-12-24T04:59:35;10.16;94.16
65707;SHT31;52423;43.512;5.220;2022-12-24T05:02:00;10.01;93.90
65707;SHT31;52423;43.512;5.220;2022-12-24T05:04:25;9.92;94.88
65707;SHT31;52423;43.512;5.220;2022-12-24T05:06:51;10.13;95.65
65707;SHT31;52423;43.512;5.220;2022-12-24T05:09:16;9.95;93.87
65707;SHT31;52423;43.512;5.220;2022-12-24T05:11:42;9.89;94.76
65707;SHT31;52423;43.512;5.220;2022-12-24T05:14:07;10.08;95.61
65707;SHT31;52423;43.512;5.220;2022-12-24T05:16:32;9.92;94.23
65707;SHT31;52423;43.512;5.220;2022-12-24T05:18:58;10.05;95.82
65707;SHT31;52423;43.512;5.220;2022-12-24T05:21:24;10.10;94.33
65707;SHT31;52423;43.512;5.220;2022-12-24T05:23:50;9.93;94.34
65707;SHT31;52423;43.512;5.220;2022-12-24T05:26:47;9.95;94.41
65707;SHT31;52423;43.512;5.220;2022-12-24T05:29:13;9.89;94.74
65707;SHT31;52423;43.512;5.220;2022-12-24T05:31:39;10.24;97.10
65707;SHT31;52423;43.512;5.220;2022-12-24T05:34:06;9.95;94.25
65707;SHT31;52423;43.512;5.220;2022-12-24T05:36:32;9.92;94.81
65707;SHT31;52423;43.512;5.220;2022-12-24T05:38:57;9.86;94.70
65707;SHT31;52423;43.512;5.220;2022-12-24T05:41:23;9.93;96.06
65707;SHT31;52423;43.512;5.220;2022-12-24T05:43:49;10.06;94.28
65707;SHT31;52423;43.512;5.220;2022-12-24T05:46:17;10.06;94.17
65707;SHT31;52423;43.512;5.220;2022-12-24T05:48:43;10.09;94.07
65707;SHT31;52423;43.512;5.220;2022-12-24T05:51:11;10.03;93.64
65707;SHT31;52423;43.512;5.220;2022-12-24T05:53:37;10.05;94.40
65707;SHT31;52423;43.512;5.220;2022-12-24T05:56:07;9.99;94.17
65707;SHT31;52423;43.512;5.220;2022-12-24T05:58:33;9.92;94.57
65707;SHT31;52423;43.512;5.220;2022-12-24T06:01:00;9.96;94.74
65707;SHT31;52423;43.512;5.220;2022-12-24T06:03:26;9.95;94.59
65707;SHT31;52423;43.512;5.220;2022-12-24T06:06:03;10.05;94.92
65707;SHT31;52423;43.512;5.220;2022-12-24T06:08:30;9.82;93.91
65707;SHT31;52423;43.512;5.220;2022-12-24T06:10:57;9.82;95.30
65707;SHT31;52423;43.512;5.220;2022-12-24T06:13:23;9.89;94.59
65707;SHT31;52423;43.512;5.220;2022-12-24T06:15:49;9.79;94.10
65707;SHT31;52423;43.512;5.220;2022-12-24T06:18:14;9.62;94.24
65707;SHT31;52423;43.512;5.220;2022-12-24T06:20:40;9.83;95.74
65707;SHT31;52423;43.512;5.220;2022-12-24T06:23:05;9.86;95.23
65707;SHT31;52423;43.512;5.220;2022-12-24T06:25:30;9.68;93.82
65707;SHT31;52423;43.512;5.220;2022-12-24T06:27:56;9.57;94.43
65707;SHT31;52423;43.512;5.220;2022-12-24T06:30:21;9.57;94.54
65707;SHT31;52423;43.512;5.220;2022-12-24T06:32:47;9.77;96.25
65707;SHT31;52423;43.512;5.220;2022-12-24T06:35:12;9.78;95.12
65707;SHT31;52423;43.512;5.220;2022-12-24T06:37:37;9.74;95.10
65707;SHT31;52423;43.512;5.220;2022-12-24T06:40:03;9.93;96.10
65707;SHT31;52423;43.512;5.220;2022-12-24T06:42:28;9.64;94.05
65707;SHT31;52423;43.512;5.220;2022-12-24T06:44:54;9.64;94.52
65707;SHT31;52423;43.512;5.220;2022-12-24T06:47:19;9.64;93.41
65707;SHT31;52423;43.512;5.220;2022-12-24T06:49:44;9.62;93.39
65707;SHT31;52423;43.512;5.220;2022-12-24T06:52:10;9.65;94.45
65707;SHT31;52423;43.512;5.220;2022-12-24T06:54:35;9.67;92.85
65707;SHT31;52423;43.512;5.220;2022-12-24T06:57:01;9.61;93.20
65707;SHT31;52423;43.512;5.220;2022-12-24T06:59:26;9.57;93.27
65707;SHT31;52423;43.512;5.220;2022-12-24T07:01:51;9.62;94.25
65707;SHT31;52423;43.512;5.220;2022-12-24T07:04:17;9.57;93.24
65707;SHT31;52423;43.512;5.220;2022-12-24T07:06:42;9.57;94.37
65707;SHT31;52423;43.512;5.220;2022-12-24T07:09:11;9.50;94.63
65707;SHT31;52423;43.512;5.220;2022-12-24T07:11:37;9.61;93.73
65707;SHT31;52423;43.512;5.220;2022-12-24T07:14:02;9.57;94.40
65707;SHT31;52423;43.512;5.220;2022-12-24T07:16:28;9.40;93.47
65707;SHT31;52423;43.512;5.220;2022-12-24T07:18:53;9.45;94.01
65707;SHT31;52423;43.512;5.220;2022-12-24T07:21:18;9.50;93.47
65707;SHT31;52423;43.512;5.220;2022-12-24T07:23:44;9.57;93.86
65707;SHT31;52423;43.512;5.220;2022-12-24T07:26:10;9.48;93.75
65707;SHT31;52423;43.512;5.220;2022-12-24T07:28:35;9.57;94.21
65707;SHT31;52423;43.512;5.220;2022-12-24T07:31:00;9.62;94.90
65707;SHT31;52423;43.512;5.220;2022-12-24T07:33:26;9.68;94.88
65707;SHT31;52423;43.512;5.220;2022-12-24T07:36:19;9.55;93.50
65707;SHT31;52423;43.512;5.220;2022-12-24T07:38:44;9.61;94.59
65707;SHT31;52423;43.512;5.220;2022-12-24T07:41:10;9.67;94.61
65707;SHT31;52423;43.512;5.220;2022-12-24T07:43:36;9.71;94.61
65707;SHT31;52423;43.512;5.220;2022-12-24T07:46:02;9.81;93.53
65707;SHT31;52423;43.512;5.220;2022-12-24T07:48:28;9.92;93.67
65707;SHT31;52423;43.512;5.220;2022-12-24T07:50:54;9.91;93.65
65707;SHT31;52423;43.512;5.220;2022-12-24T07:53:20;9.81;93.38
65707;SHT31;52423;43.512;5.220;2022-12-24T07:55:45;9.95;93.89
65707;SHT31;52423;43.512;5.220;2022-12-24T07:58:11;9.88;93.43
65707;SHT31;52423;43.512;5.220;2022-12-24T08:00:36;9.93;93.68
65707;SHT31;52423;43.512;5.220;2022-12-24T08:03:02;9.91;93.59
65707;SHT31;52423;43.512;5.220;2022-12-24T08:05:27;9.81;93.74
65707;SHT31;52423;43.512;5.220;2022-12-24T08:07:53;9.86;93.80
65707;SHT31;52423;43.512;5.220;2022-12-24T08:10:19;9.86;93.63
65707;SHT31;52423;43.512;5.220;2022-12-24T08:12:44;9.86;93.88
65707;SHT31;52423;43.512;5.220;2022-12-24T08:15:12;9.93;93.96
65707;SHT31;52423;43.512;5.220;2022-12-24T08:17:38;10.03;93.72
65707;SHT31;52423;43.512;5.220;2022-12-24T08:20:03;10.16;92.81
65707;SHT31;52423;43.512;5.220;2022-12-24T08:22:29;10.24;92.29
65707;SHT31;52423;43.512;5.220;2022-12-24T08:24:55;10.32;92.33
65707;SHT31;52423;43.512;5.220;2022-12-24T08:27:20;10.39;92.40
65707;SHT31;52423;43.512;5.220;2022-12-24T08:29:46;10.43;92.93
65707;SHT31;52423;43.512;5.220;2022-12-24T08:32:11;10.46;93.75
65707;SHT31;52423;43.512;5.220;2022-12-24T08:34:36;10.50;93.95
65707;SHT31;52423;43.512;5.220;2022-12-24T08:37:02;10.53;94.54
65707;SHT31;52423;43.512;5.220;2022-12-24T08:39:27;10.74;94.91
65707;SHT31;52423;43.512;5.220;2022-12-24T08:41:52;10.87;94.90
65707;SHT31;52423;43.512;5.220;2022-12-24T08:44:18;10.97;93.85
65707;SHT31;52423;43.512;5.220;2022-12-24T08:46:43;11.04;94.11
65707;SHT31;52423;43.512;5.220;2022-12-24T08:49:09;11.00;94.38
65707;SHT31;52423;43.512;5.220;2022-12-24T08:51:34;11.08;94.44
65707;SHT31;52423;43.512;5.220;2022-12-24T08:53:59;11.16;94.28
65707;SHT31;52423;43.512;5.220;2022-12-24T08:56:25;11.22;94.66
65707;SHT31;52423;43.512;5.220;2022-12-24T08:58:50;11.26;94.86
65707;SHT31;52423;43.512;5.220;2022-12-24T09:01:19;11.38;94.41
65707;SHT31;52423;43.512;5.220;2022-12-24T09:03:46;11.46;94.74
65707;SHT31;52423;43.512;5.220;2022-12-24T09:06:13;11.53;94.40
65707;SHT31;52423;43.512;5.220;2022-12-24T09:08:39;11.62;94.59
65707;SHT31;52423;43.512;5.220;2022-12-24T09:11:05;11.67;94.67
65707;SHT31;52423;43.512;5.220;2022-12-24T09:13:31;11.77;94.86
65707;SHT31;52423;43.512;5.220;2022-12-24T09:15:56;11.83;94.64
65707;SHT31;52423;43.512;5.220;2022-12-24T09:18:22;11.83;94.21
65707;SHT31;52423;43.512;5.220;2022-12-24T09:20:47;11.89;93.98
65707;SHT31;52423;43.512;5.220;2022-12-24T09:23:13;11.94;94.00
65707;SHT31;52423;43.512;5.220;2022-12-24T09:25:42;11.95;94.08
65707;SHT31;52423;43.512;5.220;2022-12-24T09:28:08;11.97;94.49
65707;SHT31;52423;43.512;5.220;2022-12-24T09:30:35;12.00;94.31
65707;SHT31;52423;43.512;5.220;2022-12-24T09:33:01;12.08;93.48
65707;SHT31;52423;43.512;5.220;2022-12-24T09:35:26;12.24;92.83
65707;SHT31;52423;43.512;5.220;2022-12-24T09:37:51;12.31;92.81
65707;SHT31;52423;43.512;5.220;2022-12-24T09:40:34;12.34;92.28
65707;SHT31;52423;43.512;5.220;2022-12-24T09:43:03;12.41;92.42
65707;SHT31;52423;43.512;5.220;2022-12-24T09:45:34;12.48;92.09
65707;SHT31;52423;43.512;5.220;2022-12-24T09:48:10;12.65;92.02
65707;SHT31;52423;43.512;5.220;2022-12-24T09:50:51;12.66;90.96
65707;SHT31;52423;43.512;5.220;2022-12-24T09:53:25;12.63;90.81
65707;SHT31;52423;43.512;5.220;2022-12-24T09:55:56;12.61;91.15
65707;SHT31;52423;43.512;5.220;2022-12-24T09:58:50;12.71;91.86
65707;SHT31;52423;43.512;5.220;2022-12-24T10:01:18;12.82;91.74
65707;SHT31;52423;43.512;5.220;2022-12-24T10:03:44;12.88;91.84
65707;SHT31;52423;43.512;5.220;2022-12-24T10:06:17;13.00;90.89
65707;SHT31;52423;43.512;5.220;2022-12-24T10:11:50;13.12;89.88
65707;SHT31;52423;43.512;5.220;2022-12-24T10:14:28;13.17;89.89
65707;SHT31;52423;43.512;5.220;2022-12-24T10:17:12;13.24;90.15
65707;SHT31;52423;43.512;5.220;2022-12-24T10:22:36;13.33;90.32
65707;SHT31;52423;43.512;5.220;2022-12-24T10:27:40;13.32;90.68
65707;SHT31;52423;43.512;5.220;2022-12-24T10:30:13;13.34;90.88
65707;SHT31;52423;43.512;5.220;2022-12-24T10:32:40;13.39;89.32
65707;SHT31;52423;43.512;5.220;2022-12-24T10:35:18;13.37;90.00
65707;SHT31;52423;43.512;5.220;2022-12-24T10:37:46;13.40;89.81
65707;SHT31;52423;43.512;5.220;2022-12-24T10:40:31;13.44;89.20
65707;SHT31;52423;43.512;5.220;2022-12-24T10:42:59;13.50;88.90
65707;SHT31;52423;43.512;5.220;2022-12-24T10:45:33;13.54;88.61
65707;SHT31;52423;43.512;5.220;2022-12-24T10:48:04;13.60;88.72
65707;SHT31;52423;43.512;5.220;2022-12-24T10:50:35;13.60;89.31
65707;SHT31;52423;43.512;5.220;2022-12-24T10:55:36;13.70;89.50
65707;SHT31;52423;43.512;5.220;2022-12-24T10:58:12;13.84;89.02
65707;SHT31;52423;43.512;5.220;2022-12-24T11:00:39;13.97;88.74
65707;SHT31;52423;43.512;5.220;2022-12-24T11:05:37;14.23;88.03
65707;SHT31;52423;43.512;5.220;2022-12-24T11:10:59;14.43;87.33
65707;SHT31;52423;43.512;5.220;2022-12-24T11:13:30;14.46;87.82
65707;SHT31;52423;43.512;5.220;2022-12-24T11:18:48;14.44;87.82
65707;SHT31;52423;43.512;5.220;2022-12-24T11:21:38;14.43;87.41
65707;SHT31;52423;43.512;5.220;2022-12-24T11:24:13;14.42;87.04
65707;SHT31;52423;43.512;5.220;2022-12-24T11:26:43;14.33;86.18
65707;SHT31;52423;43.512;5.220;2022-12-24T11:31:37;14.23;86.86
65707;SHT31;52423;43.512;5.220;2022-12-24T11:36:49;14.16;87.57
65707;SHT31;52423;43.512;5.220;2022-12-24T11:39:20;14.16;87.93
65707;SHT31;52423;43.512;5.220;2022-12-24T11:41:47;14.19;88.14
65707;SHT31;52423;43.512;5.220;2022-12-24T11:44:12;14.22;87.18
65707;SHT31;52423;43.512;5.220;2022-12-24T11:46:40;14.19;87.13
65707;SHT31;52423;43.512;5.220;2022-12-24T11:54:25;14.28;85.70
65707;SHT31;52423;43.512;5.220;2022-12-24T11:56:54;14.34;86.26
65707;SHT31;52423;43.512;5.220;2022-12-24T11:59:31;14.29;86.79
65707;SHT31;52423;43.512;5.220;2022-12-24T12:02:36;14.28;85.64
65707;SHT31;52423;43.512;5.220;2022-12-24T12:05:08;14.28;85.72
65707;SHT31;52423;43.512;5.220;2022-12-24T12:07:37;14.37;85.47
65707;SHT31;52423;43.512;5.220;2022-12-24T12:10:16;14.43;84.62
65707;SHT31;52423;43.512;5.220;2022-12-24T12:12:55;14.39;84.61
65707;SHT31;52423;43.512;5.220;2022-12-24T12:15:24;14.40;83.28
65707;SHT31;52423;43.512;5.220;2022-12-24T12:17:55;14.46;83.87
65707;SHT31;52423;43.512;5.220;2022-12-24T12:20:24;14.44;84.01
65707;SHT31;52423;43.512;5.220;2022-12-24T12:23:05;14.50;83.48
65707;SHT31;52423;43.512;5.220;2022-12-24T12:28:22;14.64;83.38
65707;SHT31;52423;43.512;5.220;2022-12-24T12:31:00;14.76;82.74
65707;SHT31;52423;43.512;5.220;2022-12-24T12:33:42;14.90;83.55
65707;SHT31;52423;43.512;5.220;2022-12-24T12:36:10;14.95;83.27
65707;SHT31;52423;43.512;5.220;2022-12-24T12:38:37;15.10;82.47
65707;SHT31;52423;43.512;5.220;2022-12-24T12:41:10;15.14;81.62
65707;SHT31;52423;43.512;5.220;2022-12-24T12:51:53;15.32;81.90
65707;SHT31;52423;43.512;5.220;2022-12-24T12:54:31;15.36;81.28
65707;SHT31;52423;43.512;5.220;2022-12-24T12:57:04;15.32;83.04
65707;SHT31;52423;43.512;5.220;2022-12-24T12:59:43;15.34;80.36
65707;SHT31;52423;43.512;5.220;2022-12-24T13:05:46;15.25;80.90
65707;SHT31;52423;43.512;5.220;2022-12-24T13:11:34;15.20;81.91
65707;SHT31;52423;43.512;5.220;2022-12-24T13:22:02;15.18;82.22
65707;SHT31;52423;43.512;5.220;2022-12-24T13:24:29;15.18;82.30
65707;SHT31;52423;43.512;5.220;2022-12-24T13:27:02;15.20;82.78
65707;SHT31;52423;43.512;5.220;2022-12-24T13:29:33;15.28;81.53
65707;SHT31;52423;43.512;5.220;2022-12-24T13:34:54;15.32;82.59
65707;SHT31;52423;43.512;5.220;2022-12-24T13:48:20;15.41;83.06
65707;SHT31;52423;43.512;5.220;2022-12-24T13:53:32;15.45;82.02
65707;SHT31;52423;43.512;5.220;2022-12-24T13:56:07;15.44;82.82
65707;SHT31;52423;43.512;5.220;2022-12-24T13:58:34;15.45;82.60
65707;SHT31;52423;43.512;5.220;2022-12-24T14:01:07;15.61;81.24
65707;SHT31;52423;43.512;5.220;2022-12-24T14:03:36;15.61;82.23
65707;SHT31;52423;43.512;5.220;2022-12-24T14:06:06;15.61;81.92
65707;SHT31;52423;43.512;5.220;2022-12-24T14:08:36;15.73;81.10
65707;SHT31;52423;43.512;5.220;2022-12-24T14:16:29;15.79;81.35
65707;SHT31;52423;43.512;5.220;2022-12-24T14:19:01;15.75;81.34
65707;SHT31;52423;43.512;5.220;2022-12-24T14:21:36;15.81;81.02
65707;SHT31;52423;43.512;5.220;2022-12-24T14:24:19;15.78;82.01
65707;SHT31;52423;43.512;5.220;2022-12-24T14:26:53;15.73;82.09
65707;SHT31;52423;43.512;5.220;2022-12-24T14:29:26;15.70;82.62
65707;SHT31;52423;43.512;5.220;2022-12-24T14:31:55;15.75;82.91
65707;SHT31;52423;43.512;5.220;2022-12-24T14:34:21;15.69;83.39
65707;SHT31;52423;43.512;5.220;2022-12-24T14:36:47;15.69;83.58
65707;SHT31;52423;43.512;5.220;2022-12-24T14:39:33;15.70;83.81
65707;SHT31;52423;43.512;5.220;2022-12-24T14:47:24;15.78;83.76
65707;SHT31;52423;43.512;5.220;2022-12-24T14:49:59;15.72;83.58
65707;SHT31;52423;43.512;5.220;2022-12-24T14:54:57;15.81;81.77
65707;SHT31;52423;43.512;5.220;2022-12-24T14:57:24;15.69;81.81
65707;SHT31;52423;43.512;5.220;2022-12-24T14:59:51;15.73;81.51
65707;SHT31;52423;43.512;5.220;2022-12-24T15:02:42;15.66;81.90
65707;SHT31;52423;43.512;5.220;2022-12-24T15:05:19;15.52;82.42
65707;SHT31;52423;43.512;5.220;2022-12-24T15:10:26;15.45;83.36
65707;SHT31;52423;43.512;5.220;2022-12-24T15:12:54;15.36;83.65
65707;SHT31;52423;43.512;5.220;2022-12-24T15:15:20;15.31;83.94
65707;SHT31;52423;43.512;5.220;2022-12-24T15:17:46;15.27;84.12
65707;SHT31;52423;43.512;5.220;2022-12-24T15:20:17;15.18;84.70
65707;SHT31;52423;43.512;5.220;2022-12-24T15:22:45;15.08;85.10
65707;SHT31;52423;43.512;5.220;2022-12-24T15:25:29;14.97;85.44
65707;SHT31;52423;43.512;5.220;2022-12-24T15:27:55;14.91;86.14
65707;SHT31;52423;43.512;5.220;2022-12-24T15:30:24;14.77;86.71
65707;SHT31;52423;43.512;5.220;2022-12-24T15:32:52;14.64;87.03
65707;SHT31;52423;43.512;5.220;2022-12-24T15:35:53;14.44;87.60
65707;SHT31;52423;43.512;5.220;2022-12-24T15:38:44;14.28;88.06
65707;SHT31;52423;43.512;5.220;2022-12-24T15:41:17;14.16;88.55
65707;SHT31;52423;43.512;5.220;2022-12-24T15:43:45;14.02;88.94
65707;SHT31;52423;43.512;5.220;2022-12-24T15:46:19;13.98;89.15
65707;SHT31;52423;43.512;5.220;2022-12-24T15:48:45;13.82;89.43
65707;SHT31;52423;43.512;5.220;2022-12-24T15:51:11;13.68;89.97
65707;SHT31;52423;43.512;5.220;2022-12-24T15:53:42;13.61;90.21
65707;SHT31;52423;43.512;5.220;2022-12-24T15:56:10;13.51;90.34
65707;SHT31;52423;43.512;5.220;2022-12-24T15:58:40;13.41;90.75
65707;SHT31;52423;43.512;5.220;2022-12-24T16:03:39;13.27;91.08
65707;SHT31;52423;43.512;5.220;2022-12-24T16:06:09;13.24;91.39
65707;SHT31;52423;43.512;5.220;2022-12-24T16:08:38;13.24;91.18
65707;SHT31;52423;43.512;5.220;2022-12-24T16:13:31;13.07;91.64
65707;SHT31;52423;43.512;5.220;2022-12-24T16:16:03;13.10;91.82
65707;SHT31;52423;43.512;5.220;2022-12-24T16:18:32;13.00;91.57
65707;SHT31;52423;43.512;5.220;2022-12-24T16:20:58;12.99;91.27
65707;SHT31;52423;43.512;5.220;2022-12-24T16:23:45;12.86;92.05
65707;SHT31;52423;43.512;5.220;2022-12-24T16:26:11;12.76;92.20
65707;SHT31;52423;43.512;5.220;2022-12-24T16:28:36;12.71;92.23
65707;SHT31;52423;43.512;5.220;2022-12-24T16:31:02;12.73;92.13
65707;SHT31;52423;43.512;5.220;2022-12-24T16:33:28;12.78;92.36
65707;SHT31;52423;43.512;5.220;2022-12-24T16:35:54;12.72;91.73
65707;SHT31;52423;43.512;5.220;2022-12-24T16:38:20;12.56;91.88
65707;SHT31;52423;43.512;5.220;2022-12-24T16:40:46;12.59;92.13
65707;SHT31;52423;43.512;5.220;2022-12-24T16:43:11;12.71;91.80
65707;SHT31;52423;43.512;5.220;2022-12-24T16:46:01;12.56;91.57
65707;SHT31;52423;43.512;5.220;2022-12-24T16:48:27;12.40;91.82
65707;SHT31;52423;43.512;5.220;2022-12-24T16:50:53;12.51;91.99
65707;SHT31;52423;43.512;5.220;2022-12-24T16:53:20;12.69;91.94
65707;SHT31;52423;43.512;5.220;2022-12-24T16:55:46;12.59;91.21
65707;SHT31;52423;43.512;5.220;2022-12-24T16:58:14;12.42;91.94
65707;SHT31;52423;43.512;5.220;2022-12-24T17:00:41;12.31;92.12
65707;SHT31;52423;43.512;5.220;2022-12-24T17:03:07;12.31;92.44
65707;SHT31;52423;43.512;5.220;2022-12-24T17:05:36;12.31;92.00
65707;SHT31;52423;43.512;5.220;2022-12-24T17:08:02;12.23;92.32
65707;SHT31;52423;43.512;5.220;2022-12-24T17:10:27;12.16;92.08
65707;SHT31;52423;43.512;5.220;2022-12-24T17:12:53;12.05;92.42
65707;SHT31;52423;43.512;5.220;2022-12-24T17:15:19;11.95;92.39
65707;SHT31;52423;43.512;5.220;2022-12-24T17:17:44;11.90;92.53
65707;SHT31;52423;43.512;5.220;2022-12-24T17:20:09;11.83;92.75
65707;SHT31;52423;43.512;5.220;2022-12-24T17:22:35;11.91;93.68
65707;SHT31;52423;43.512;5.220;2022-12-24T17:25:01;12.20;93.62
65707;SHT31;52423;43.512;5.220;2022-12-24T17:27:26;12.07;92.45
65707;SHT31;52423;43.512;5.220;2022-12-24T17:29:52;12.01;92.65
65707;SHT31;52423;43.512;5.220;2022-12-24T17:32:17;11.93;92.21